sensor_id;sensor_type;location;lat;lon;timestamp;P1;durP1;ratioP1;P2;durP2;ratioP2
75997;SDS011;64685;48.762;44.822;2023-05-07T00:04:17;5.57;;;2.20;;
75997;SDS011;64685;48.762;44.822;2023-05-07T00:09:20;5.22;;;1.88;;
75997;SDS011;64685;48.762;44.822;2023-05-07T00:14:22;12.25;;;4.88;;
75997;SDS011;64685;48.762;44.822;2023-05-07T00:19:25;10.55;;;4.68;;
75997;SDS011;64685;48.762;44.822;2023-05-07T00:24:28;8.70;;;3.70;;
75997;SDS011;64685;48.762;44.822;2023-05-07T00:29:30;6.40;;;2.50;;
75997;SDS011;64685;48.762;44.822;2023-05-07T00:34:33;7.60;;;3.17;;
75997;SDS011;64685;48.762;44.822;2023-05-07T00:39:35;4.07;;;1.55;;
75997;SDS011;64685;48.762;44.822;2023-05-07T00:44:38;1.48;;;0.90;;
75997;SDS011;64685;48.762;44.822;2023-05-07T00:49:44;3.10;;;1.23;;
75997;SDS011;64685;48.762;44.822;2023-05-07T00:54:47;1.98;;;0.80;;
75997;SDS011;64685;48.762;44.822;2023-05-07T00:59:50;3.85;;;1.13;;
75997;SDS011;64685;48.762;44.822;2023-05-07T01:04:53;2.10;;;0.90;;
75997;SDS011;64685;48.762;44.822;2023-05-07T01:09:58;3.58;;;0.80;;
75997;SDS011;64685;48.762;44.822;2023-05-07T01:15:01;1.95;;;0.95;;
75997;SDS011;64685;48.762;44.822;2023-05-07T01:20:06;1.60;;;0.73;;
75997;SDS011;64685;48.762;44.822;2023-05-07T01:25:10;2.30;;;1.17;;
75997;SDS011;64685;48.762;44.822;2023-05-07T01:30:18;3.80;;;1.00;;
75997;SDS011;64685;48.762;44.822;2023-05-07T01:40:27;4.70;;;1.15;;
75997;SDS011;64685;48.762;44.822;2023-05-07T01:45:29;1.65;;;0.80;;
75997;SDS011;64685;48.762;44.822;2023-05-07T01:50:33;2.85;;;0.90;;
75997;SDS011;64685;48.762;44.822;2023-05-07T01:55:37;2.60;;;0.90;;
75997;SDS011;64685;48.762;44.822;2023-05-07T02:00:40;2.83;;;1.27;;
75997;SDS011;64685;48.762;44.822;2023-05-07T02:05:43;3.80;;;1.23;;
75997;SDS011;64685;48.762;44.822;2023-05-07T02:10:56;3.25;;;1.23;;
75997;SDS011;64685;48.762;44.822;2023-05-07T02:16:00;3.30;;;0.98;;
75997;SDS011;64685;48.762;44.822;2023-05-07T02:21:03;3.00;;;1.13;;
75997;SDS011;64685;48.762;44.822;2023-05-07T02:26:06;2.42;;;0.90;;
75997;SDS011;64685;48.762;44.822;2023-05-07T02:31:09;2.53;;;1.00;;
75997;SDS011;64685;48.762;44.822;2023-05-07T02:36:12;2.05;;;1.00;;
75997;SDS011;64685;48.762;44.822;2023-05-07T02:41:22;2.15;;;0.90;;
75997;SDS011;64685;48.762;44.822;2023-05-07T02:46:24;2.70;;;1.08;;
75997;SDS011;64685;48.762;44.822;2023-05-07T02:51:34;1.10;;;0.55;;
75997;SDS011;64685;48.762;44.822;2023-05-07T02:56:41;2.70;;;0.80;;
75997;SDS011;64685;48.762;44.822;2023-05-07T03:01:43;2.65;;;0.60;;
75997;SDS011;64685;48.762;44.822;2023-05-07T03:06:47;2.55;;;0.90;;
75997;SDS011;64685;48.762;44.822;2023-05-07T03:11:50;2.90;;;0.50;;
75997;SDS011;64685;48.762;44.822;2023-05-07T03:16:53;1.77;;;0.63;;
75997;SDS011;64685;48.762;44.822;2023-05-07T03:21:56;2.55;;;0.50;;
75997;SDS011;64685;48.762;44.822;2023-05-07T03:26:58;1.73;;;0.68;;
75997;SDS011;64685;48.762;44.822;2023-05-07T03:32:01;1.92;;;0.70;;
75997;SDS011;64685;48.762;44.822;2023-05-07T03:37:03;1.88;;;0.82;;
75997;SDS011;64685;48.762;44.822;2023-05-07T03:42:06;1.83;;;0.63;;
75997;SDS011;64685;48.762;44.822;2023-05-07T03:47:09;5.90;;;1.02;;
75997;SDS011;64685;48.762;44.822;2023-05-07T03:52:13;2.97;;;0.68;;
75997;SDS011;64685;48.762;44.822;2023-05-07T03:57:16;2.15;;;0.90;;
75997;SDS011;64685;48.762;44.822;2023-05-07T04:02:19;1.98;;;0.57;;
75997;SDS011;64685;48.762;44.822;2023-05-07T04:07:22;1.63;;;0.90;;
75997;SDS011;64685;48.762;44.822;2023-05-07T04:12:25;2.00;;;0.70;;
75997;SDS011;64685;48.762;44.822;2023-05-07T04:17:28;2.45;;;1.00;;
75997;SDS011;64685;48.762;44.822;2023-05-07T04:22:31;3.83;;;1.35;;
75997;SDS011;64685;48.762;44.822;2023-05-07T04:27:33;4.10;;;1.10;;
75997;SDS011;64685;48.762;44.822;2023-05-07T04:32:37;3.38;;;1.00;;
75997;SDS011;64685;48.762;44.822;2023-05-07T04:37:41;3.83;;;1.17;;
75997;SDS011;64685;48.762;44.822;2023-05-07T04:42:44;4.95;;;1.20;;
75997;SDS011;64685;48.762;44.822;2023-05-07T04:47:47;2.97;;;1.10;;
75997;SDS011;64685;48.762;44.822;2023-05-07T04:52:50;2.78;;;1.20;;
75997;SDS011;64685;48.762;44.822;2023-05-07T04:57:53;2.17;;;1.05;;
75997;SDS011;64685;48.762;44.822;2023-05-07T05:02:57;3.10;;;1.27;;
75997;SDS011;64685;48.762;44.822;2023-05-07T05:08:01;3.15;;;1.38;;
75997;SDS011;64685;48.762;44.822;2023-05-07T05:13:04;4.40;;;1.30;;
75997;SDS011;64685;48.762;44.822;2023-05-07T05:18:07;3.15;;;1.30;;
75997;SDS011;64685;48.762;44.822;2023-05-07T05:23:09;3.65;;;1.45;;
75997;SDS011;64685;48.762;44.822;2023-05-07T05:28:12;3.17;;;1.00;;
75997;SDS011;64685;48.762;44.822;2023-05-07T05:33:15;3.60;;;1.02;;
75997;SDS011;64685;48.762;44.822;2023-05-07T05:38:18;4.15;;;1.20;;
75997;SDS011;64685;48.762;44.822;2023-05-07T05:43:20;3.60;;;1.45;;
75997;SDS011;64685;48.762;44.822;2023-05-07T05:48:23;1.80;;;1.25;;
75997;SDS011;64685;48.762;44.822;2023-05-07T05:53:26;2.55;;;1.30;;
75997;SDS011;64685;48.762;44.822;2023-05-07T05:58:28;4.93;;;1.20;;
75997;SDS011;64685;48.762;44.822;2023-05-07T06:03:35;4.40;;;1.23;;
75997;SDS011;64685;48.762;44.822;2023-05-07T06:08:45;2.95;;;1.30;;
75997;SDS011;64685;48.762;44.822;2023-05-07T06:13:53;2.97;;;1.10;;
75997;SDS011;64685;48.762;44.822;2023-05-07T06:18:55;3.80;;;1.40;;
75997;SDS011;64685;48.762;44.822;2023-05-07T06:23:58;5.25;;;1.45;;
75997;SDS011;64685;48.762;44.822;2023-05-07T06:29:01;2.78;;;1.40;;
75997;SDS011;64685;48.762;44.822;2023-05-07T06:34:04;5.38;;;1.55;;
75997;SDS011;64685;48.762;44.822;2023-05-07T06:39:12;2.63;;;1.33;;
75997;SDS011;64685;48.762;44.822;2023-05-07T06:44:15;3.78;;;1.42;;
75997;SDS011;64685;48.762;44.822;2023-05-07T06:49:21;6.68;;;1.50;;
75997;SDS011;64685;48.762;44.822;2023-05-07T06:54:24;4.55;;;1.60;;
75997;SDS011;64685;48.762;44.822;2023-05-07T06:59:27;2.60;;;1.20;;
75997;SDS011;64685;48.762;44.822;2023-05-07T07:04:30;4.18;;;1.05;;
75997;SDS011;64685;48.762;44.822;2023-05-07T07:09:37;3.80;;;1.38;;
75997;SDS011;64685;48.762;44.822;2023-05-07T07:14:42;4.00;;;1.95;;
75997;SDS011;64685;48.762;44.822;2023-05-07T07:19:44;4.65;;;2.72;;
75997;SDS011;64685;48.762;44.822;2023-05-07T07:24:47;5.00;;;1.60;;
75997;SDS011;64685;48.762;44.822;2023-05-07T07:29:52;5.90;;;1.50;;
75997;SDS011;64685;48.762;44.822;2023-05-07T07:34:55;4.75;;;1.60;;
75997;SDS011;64685;48.762;44.822;2023-05-07T07:39:57;8.48;;;2.10;;
75997;SDS011;64685;48.762;44.822;2023-05-07T07:45:00;4.72;;;1.38;;
75997;SDS011;64685;48.762;44.822;2023-05-07T07:50:07;4.13;;;1.42;;
75997;SDS011;64685;48.762;44.822;2023-05-07T07:55:11;2.72;;;1.33;;
75997;SDS011;64685;48.762;44.822;2023-05-07T08:00:15;6.25;;;1.70;;
75997;SDS011;64685;48.762;44.822;2023-05-07T08:05:18;5.15;;;1.52;;
75997;SDS011;64685;48.762;44.822;2023-05-07T08:10:22;3.80;;;1.30;;
75997;SDS011;64685;48.762;44.822;2023-05-07T08:15:31;3.10;;;1.45;;
75997;SDS011;64685;48.762;44.822;2023-05-07T08:20:34;9.20;;;1.98;;
75997;SDS011;64685;48.762;44.822;2023-05-07T08:25:45;4.60;;;1.60;;
75997;SDS011;64685;48.762;44.822;2023-05-07T08:30:48;5.93;;;1.42;;
75997;SDS011;64685;48.762;44.822;2023-05-07T08:35:51;4.28;;;1.13;;
75997;SDS011;64685;48.762;44.822;2023-05-07T08:40:54;7.72;;;1.70;;
75997;SDS011;64685;48.762;44.822;2023-05-07T08:45:57;3.45;;;1.20;;
75997;SDS011;64685;48.762;44.822;2023-05-07T08:51:11;3.58;;;1.52;;
75997;SDS011;64685;48.762;44.822;2023-05-07T08:56:16;3.92;;;1.20;;
75997;SDS011;64685;48.762;44.822;2023-05-07T09:01:23;5.18;;;1.30;;
75997;SDS011;64685;48.762;44.822;2023-05-07T09:06:29;6.75;;;1.48;;
75997;SDS011;64685;48.762;44.822;2023-05-07T09:16:36;6.97;;;1.30;;
75997;SDS011;64685;48.762;44.822;2023-05-07T09:21:39;4.05;;;1.25;;
75997;SDS011;64685;48.762;44.822;2023-05-07T09:26:44;5.70;;;1.73;;
75997;SDS011;64685;48.762;44.822;2023-05-07T09:31:49;3.05;;;1.10;;
75997;SDS011;64685;48.762;44.822;2023-05-07T09:41:56;6.53;;;1.58;;
75997;SDS011;64685;48.762;44.822;2023-05-07T09:47:07;4.85;;;1.27;;
75997;SDS011;64685;48.762;44.822;2023-05-07T09:52:17;3.88;;;1.55;;
75997;SDS011;64685;48.762;44.822;2023-05-07T09:57:23;3.60;;;1.33;;
75997;SDS011;64685;48.762;44.822;2023-05-07T10:02:33;3.28;;;1.40;;
75997;SDS011;64685;48.762;44.822;2023-05-07T10:07:39;3.45;;;1.25;;
75997;SDS011;64685;48.762;44.822;2023-05-07T10:12:44;2.92;;;1.23;;
75997;SDS011;64685;48.762;44.822;2023-05-07T10:17:53;4.32;;;1.40;;
75997;SDS011;64685;48.762;44.822;2023-05-07T10:22:58;3.33;;;1.33;;
75997;SDS011;64685;48.762;44.822;2023-05-07T10:28:09;3.00;;;1.33;;
75997;SDS011;64685;48.762;44.822;2023-05-07T10:33:17;3.58;;;1.40;;
75997;SDS011;64685;48.762;44.822;2023-05-07T10:38:26;2.95;;;1.33;;
75997;SDS011;64685;48.762;44.822;2023-05-07T10:59:29;4.45;;;1.55;;
75997;SDS011;64685;48.762;44.822;2023-05-07T11:10:23;5.28;;;1.55;;
75997;SDS011;64685;48.762;44.822;2023-05-07T11:15:54;3.45;;;1.50;;
75997;SDS011;64685;48.762;44.822;2023-05-07T11:21:05;3.38;;;1.52;;
75997;SDS011;64685;48.762;44.822;2023-05-07T11:26:17;4.50;;;1.70;;
75997;SDS011;64685;48.762;44.822;2023-05-07T11:31:26;4.07;;;1.60;;
75997;SDS011;64685;48.762;44.822;2023-05-07T11:36:33;3.60;;;1.48;;
75997;SDS011;64685;48.762;44.822;2023-05-07T11:41:39;4.50;;;1.38;;
75997;SDS011;64685;48.762;44.822;2023-05-07T11:46:45;6.85;;;1.70;;
75997;SDS011;64685;48.762;44.822;2023-05-07T11:51:48;4.75;;;1.27;;
75997;SDS011;64685;48.762;44.822;2023-05-07T11:56:50;3.55;;;1.40;;
75997;SDS011;64685;48.762;44.822;2023-05-07T12:01:56;3.58;;;1.40;;
75997;SDS011;64685;48.762;44.822;2023-05-07T12:06:59;2.67;;;1.30;;
75997;SDS011;64685;48.762;44.822;2023-05-07T12:12:03;4.25;;;1.25;;
75997;SDS011;64685;48.762;44.822;2023-05-07T12:17:09;4.05;;;1.30;;
75997;SDS011;64685;48.762;44.822;2023-05-07T12:22:15;3.42;;;1.52;;
75997;SDS011;64685;48.762;44.822;2023-05-07T12:27:18;3.83;;;1.23;;
75997;SDS011;64685;48.762;44.822;2023-05-07T12:32:21;5.00;;;1.65;;
75997;SDS011;64685;48.762;44.822;2023-05-07T12:37:24;4.18;;;1.40;;
75997;SDS011;64685;48.762;44.822;2023-05-07T12:42:38;4.45;;;1.58;;
75997;SDS011;64685;48.762;44.822;2023-05-07T12:47:45;3.85;;;1.40;;
75997;SDS011;64685;48.762;44.822;2023-05-07T12:52:48;4.35;;;1.70;;
75997;SDS011;64685;48.762;44.822;2023-05-07T12:57:51;4.22;;;1.25;;
75997;SDS011;64685;48.762;44.822;2023-05-07T13:02:55;5.80;;;1.60;;
75997;SDS011;64685;48.762;44.822;2023-05-07T13:07:58;5.28;;;2.00;;
75997;SDS011;64685;48.762;44.822;2023-05-07T13:13:01;4.50;;;1.63;;
75997;SDS011;64685;48.762;44.822;2023-05-07T13:18:03;4.80;;;2.05;;
75997;SDS011;64685;48.762;44.822;2023-05-07T13:23:06;3.65;;;1.27;;
75997;SDS011;64685;48.762;44.822;2023-05-07T13:28:08;5.40;;;1.95;;
75997;SDS011;64685;48.762;44.822;2023-05-07T13:33:12;5.70;;;1.80;;
75997;SDS011;64685;48.762;44.822;2023-05-07T13:38:15;4.88;;;2.03;;
75997;SDS011;64685;48.762;44.822;2023-05-07T13:43:18;5.07;;;1.70;;
75997;SDS011;64685;48.762;44.822;2023-05-07T13:48:21;6.60;;;1.77;;
75997;SDS011;64685;48.762;44.822;2023-05-07T13:53:24;4.82;;;1.67;;
75997;SDS011;64685;48.762;44.822;2023-05-07T13:58:27;4.43;;;1.85;;
75997;SDS011;64685;48.762;44.822;2023-05-07T14:03:29;3.05;;;1.60;;
75997;SDS011;64685;48.762;44.822;2023-05-07T14:08:34;5.45;;;1.65;;
75997;SDS011;64685;48.762;44.822;2023-05-07T14:13:36;4.80;;;2.10;;
75997;SDS011;64685;48.762;44.822;2023-05-07T14:18:39;4.25;;;1.65;;
75997;SDS011;64685;48.762;44.822;2023-05-07T14:23:41;4.53;;;1.60;;
75997;SDS011;64685;48.762;44.822;2023-05-07T14:28:44;6.68;;;2.42;;
75997;SDS011;64685;48.762;44.822;2023-05-07T14:33:48;4.95;;;2.03;;
75997;SDS011;64685;48.762;44.822;2023-05-07T14:38:52;5.22;;;2.08;;
75997;SDS011;64685;48.762;44.822;2023-05-07T14:44:01;4.28;;;1.90;;
75997;SDS011;64685;48.762;44.822;2023-05-07T14:49:05;7.50;;;2.08;;
75997;SDS011;64685;48.762;44.822;2023-05-07T14:54:08;6.10;;;2.40;;
75997;SDS011;64685;48.762;44.822;2023-05-07T14:59:11;6.88;;;1.92;;
75997;SDS011;64685;48.762;44.822;2023-05-07T15:04:15;6.90;;;2.33;;
75997;SDS011;64685;48.762;44.822;2023-05-07T15:09:17;6.13;;;2.58;;
75997;SDS011;64685;48.762;44.822;2023-05-07T15:14:20;6.15;;;2.42;;
75997;SDS011;64685;48.762;44.822;2023-05-07T15:19:24;4.47;;;1.92;;
75997;SDS011;64685;48.762;44.822;2023-05-07T15:24:31;4.72;;;2.30;;
75997;SDS011;64685;48.762;44.822;2023-05-07T15:29:33;6.28;;;2.35;;
75997;SDS011;64685;48.762;44.822;2023-05-07T15:34:37;5.40;;;2.30;;
75997;SDS011;64685;48.762;44.822;2023-05-07T15:39:40;5.95;;;2.17;;
75997;SDS011;64685;48.762;44.822;2023-05-07T15:44:42;3.78;;;1.85;;
75997;SDS011;64685;48.762;44.822;2023-05-07T15:49:45;4.57;;;2.00;;
75997;SDS011;64685;48.762;44.822;2023-05-07T15:54:47;4.68;;;2.20;;
75997;SDS011;64685;48.762;44.822;2023-05-07T15:59:50;6.78;;;2.65;;
75997;SDS011;64685;48.762;44.822;2023-05-07T16:04:53;5.32;;;2.47;;
75997;SDS011;64685;48.762;44.822;2023-05-07T16:09:55;7.40;;;2.60;;
75997;SDS011;64685;48.762;44.822;2023-05-07T16:14:58;6.38;;;2.60;;
75997;SDS011;64685;48.762;44.822;2023-05-07T16:20:01;6.57;;;2.83;;
75997;SDS011;64685;48.762;44.822;2023-05-07T16:25:08;6.55;;;2.42;;
75997;SDS011;64685;48.762;44.822;2023-05-07T16:30:12;7.47;;;2.83;;
75997;SDS011;64685;48.762;44.822;2023-05-07T16:35:15;7.18;;;3.13;;
75997;SDS011;64685;48.762;44.822;2023-05-07T16:40:17;7.50;;;2.58;;
75997;SDS011;64685;48.762;44.822;2023-05-07T16:45:21;8.05;;;2.58;;
75997;SDS011;64685;48.762;44.822;2023-05-07T16:50:24;6.03;;;2.88;;
75997;SDS011;64685;48.762;44.822;2023-05-07T16:55:26;5.97;;;2.30;;
75997;SDS011;64685;48.762;44.822;2023-05-07T17:05:51;4.22;;;2.10;;
75997;SDS011;64685;48.762;44.822;2023-05-07T17:10:54;6.32;;;2.45;;
75997;SDS011;64685;48.762;44.822;2023-05-07T17:15:57;7.72;;;2.42;;
75997;SDS011;64685;48.762;44.822;2023-05-07T17:20:59;6.30;;;3.05;;
75997;SDS011;64685;48.762;44.822;2023-05-07T17:26:02;8.32;;;2.67;;
75997;SDS011;64685;48.762;44.822;2023-05-07T17:31:05;8.02;;;3.30;;
75997;SDS011;64685;48.762;44.822;2023-05-07T17:36:07;6.60;;;2.35;;
75997;SDS011;64685;48.762;44.822;2023-05-07T17:41:10;5.82;;;2.35;;
75997;SDS011;64685;48.762;44.822;2023-05-07T17:46:13;7.10;;;2.25;;
75997;SDS011;64685;48.762;44.822;2023-05-07T17:51:15;7.10;;;2.42;;
75997;SDS011;64685;48.762;44.822;2023-05-07T17:56:18;5.20;;;2.22;;
75997;SDS011;64685;48.762;44.822;2023-05-07T18:01:20;5.15;;;2.15;;
75997;SDS011;64685;48.762;44.822;2023-05-07T18:06:23;5.78;;;2.42;;
75997;SDS011;64685;48.762;44.822;2023-05-07T18:11:26;4.60;;;2.25;;
75997;SDS011;64685;48.762;44.822;2023-05-07T18:16:29;6.03;;;2.97;;
75997;SDS011;64685;48.762;44.822;2023-05-07T18:21:32;7.22;;;2.85;;
75997;SDS011;64685;48.762;44.822;2023-05-07T18:26:35;7.25;;;2.65;;
75997;SDS011;64685;48.762;44.822;2023-05-07T18:31:37;4.82;;;2.35;;
75997;SDS011;64685;48.762;44.822;2023-05-07T18:36:40;4.47;;;1.90;;
75997;SDS011;64685;48.762;44.822;2023-05-07T18:41:43;5.25;;;2.05;;
75997;SDS011;64685;48.762;44.822;2023-05-07T18:46:46;4.57;;;2.17;;
75997;SDS011;64685;48.762;44.822;2023-05-07T18:51:49;6.38;;;2.30;;
75997;SDS011;64685;48.762;44.822;2023-05-07T18:56:54;5.90;;;2.00;;
75997;SDS011;64685;48.762;44.822;2023-05-07T19:01:56;5.93;;;2.53;;
75997;SDS011;64685;48.762;44.822;2023-05-07T19:06:59;5.55;;;2.25;;
75997;SDS011;64685;48.762;44.822;2023-05-07T19:12:02;5.53;;;2.25;;
75997;SDS011;64685;48.762;44.822;2023-05-07T19:17:04;5.75;;;2.35;;
75997;SDS011;64685;48.762;44.822;2023-05-07T19:22:07;14.05;;;4.40;;
75997;SDS011;64685;48.762;44.822;2023-05-07T19:27:09;13.77;;;6.30;;
75997;SDS011;64685;48.762;44.822;2023-05-07T19:32:12;14.02;;;6.72;;
75997;SDS011;64685;48.762;44.822;2023-05-07T19:37:14;13.40;;;5.40;;
75997;SDS011;64685;48.762;44.822;2023-05-07T19:42:17;11.30;;;5.30;;
75997;SDS011;64685;48.762;44.822;2023-05-07T19:47:19;10.02;;;4.60;;
75997;SDS011;64685;48.762;44.822;2023-05-07T19:52:22;9.25;;;3.90;;
75997;SDS011;64685;48.762;44.822;2023-05-07T19:57:24;7.25;;;2.50;;
75997;SDS011;64685;48.762;44.822;2023-05-07T20:02:27;4.85;;;2.00;;
75997;SDS011;64685;48.762;44.822;2023-05-07T20:07:30;4.22;;;1.48;;
75997;SDS011;64685;48.762;44.822;2023-05-07T20:12:33;5.22;;;2.40;;
75997;SDS011;64685;48.762;44.822;2023-05-07T20:17:36;5.72;;;2.03;;
75997;SDS011;64685;48.762;44.822;2023-05-07T20:22:39;6.80;;;2.30;;
75997;SDS011;64685;48.762;44.822;2023-05-07T20:27:42;3.38;;;1.92;;
75997;SDS011;64685;48.762;44.822;2023-05-07T20:32:45;4.25;;;2.15;;
75997;SDS011;64685;48.762;44.822;2023-05-07T20:37:47;6.50;;;2.50;;
75997;SDS011;64685;48.762;44.822;2023-05-07T20:42:50;6.13;;;2.30;;
75997;SDS011;64685;48.762;44.822;2023-05-07T20:47:53;4.00;;;1.45;;
75997;SDS011;64685;48.762;44.822;2023-05-07T20:52:55;6.22;;;2.15;;
75997;SDS011;64685;48.762;44.822;2023-05-07T20:57:58;4.90;;;2.25;;
75997;SDS011;64685;48.762;44.822;2023-05-07T21:03:00;4.78;;;1.88;;
75997;SDS011;64685;48.762;44.822;2023-05-07T21:08:03;3.70;;;1.90;;
75997;SDS011;64685;48.762;44.822;2023-05-07T21:13:06;4.45;;;2.00;;
75997;SDS011;64685;48.762;44.822;2023-05-07T21:18:09;4.90;;;2.28;;
75997;SDS011;64685;48.762;44.822;2023-05-07T21:23:12;6.22;;;2.20;;
75997;SDS011;64685;48.762;44.822;2023-05-07T21:28:14;5.20;;;1.80;;
75997;SDS011;64685;48.762;44.822;2023-05-07T21:33:18;5.72;;;1.92;;
75997;SDS011;64685;48.762;44.822;2023-05-07T21:38:21;4.20;;;1.73;;
75997;SDS011;64685;48.762;44.822;2023-05-07T21:43:24;4.53;;;1.85;;
75997;SDS011;64685;48.762;44.822;2023-05-07T21:48:26;4.55;;;2.03;;
75997;SDS011;64685;48.762;44.822;2023-05-07T21:53:29;3.25;;;1.60;;
75997;SDS011;64685;48.762;44.822;2023-05-07T21:58:32;3.38;;;1.67;;
75997;SDS011;64685;48.762;44.822;2023-05-07T22:03:34;5.03;;;1.70;;
75997;SDS011;64685;48.762;44.822;2023-05-07T22:08:37;4.63;;;1.83;;
75997;SDS011;64685;48.762;44.822;2023-05-07T22:13:39;4.70;;;1.88;;
75997;SDS011;64685;48.762;44.822;2023-05-07T22:18:42;4.35;;;1.50;;
75997;SDS011;64685;48.762;44.822;2023-05-07T22:23:44;5.25;;;2.30;;
75997;SDS011;64685;48.762;44.822;2023-05-07T22:28:47;3.78;;;1.55;;
75997;SDS011;64685;48.762;44.822;2023-05-07T22:33:50;6.15;;;2.22;;
75997;SDS011;64685;48.762;44.822;2023-05-07T22:38:52;4.90;;;1.95;;
75997;SDS011;64685;48.762;44.822;2023-05-07T22:43:55;3.17;;;1.35;;
75997;SDS011;64685;48.762;44.822;2023-05-07T22:48:57;5.72;;;2.03;;
75997;SDS011;64685;48.762;44.822;2023-05-07T22:54:00;4.28;;;1.88;;
75997;SDS011;64685;48.762;44.822;2023-05-07T22:59:02;4.90;;;1.85;;
75997;SDS011;64685;48.762;44.822;2023-05-07T23:04:05;2.75;;;1.38;;
75997;SDS011;64685;48.762;44.822;2023-05-07T23:09:08;4.20;;;2.00;;
75997;SDS011;64685;48.762;44.822;2023-05-07T23:14:11;3.22;;;1.55;;
75997;SDS011;64685;48.762;44.822;2023-05-07T23:19:13;7.05;;;1.60;;
75997;SDS011;64685;48.762;44.822;2023-05-07T23:24:16;6.43;;;2.03;;
75997;SDS011;64685;48.762;44.822;2023-05-07T23:29:20;3.53;;;1.40;;
75997;SDS011;64685;48.762;44.822;2023-05-07T23:34:22;2.30;;;1.30;;
75997;SDS011;64685;48.762;44.822;2023-05-07T23:39:25;6.07;;;1.80;;
75997;SDS011;64685;48.762;44.822;2023-05-07T23:44:27;3.88;;;2.00;;
75997;SDS011;64685;48.762;44.822;2023-05-07T23:49:30;5.95;;;2.08;;
75997;SDS011;64685;48.762;44.822;2023-05-07T23:54:32;5.38;;;1.80;;
75997;SDS011;64685;48.762;44.822;2023-05-07T23:59:35;5.85;;;1.70;;
